createdAt,value
2018-06-01T00:01:05.701Z,72.48
2018-06-01T00:03:33.960Z,72.24
2018-06-01T00:06:02.226Z,72.84
2018-06-01T00:08:30.837Z,72.58
2018-06-01T00:10:59.131Z,72.90
2018-06-01T00:13:27.387Z,72.83
2018-06-01T00:15:55.750Z,72.73
2018-06-01T00:18:24.786Z,72.84
2018-06-01T00:20:53.855Z,72.72
2018-06-01T00:23:22.902Z,72.61
2018-06-01T00:25:51.212Z,72.81
2018-06-01T00:28:19.505Z,72.99
2018-06-01T00:30:47.777Z,73.07
2018-06-01T00:33:16.094Z,73.34
2018-06-01T00:35:44.381Z,73.35
2018-06-01T00:38:12.674Z,73.34
2018-06-01T00:40:40.924Z,73.24
2018-06-01T00:43:09.253Z,73.32
2018-06-01T00:45:37.534Z,73.22
2018-06-01T00:48:05.889Z,73.15
2018-06-01T00:50:34.138Z,72.68
2018-06-01T00:53:02.411Z,73.09
2018-06-01T00:55:30.848Z,73.36
2018-06-01T00:57:59.160Z,74.16
2018-06-01T01:00:27.432Z,73.80
2018-06-01T01:02:55.715Z,74.09
2018-06-01T01:05:24.762Z,74.10
2018-06-01T01:07:53.032Z,74.25
2018-06-01T01:10:21.334Z,74.01
2018-06-01T01:12:49.635Z,74.03
2018-06-01T01:15:17.952Z,74.09
2018-06-01T01:17:46.212Z,74.10
2018-06-01T01:20:14.500Z,74.07
2018-06-01T01:22:42.794Z,74.25
2018-06-01T01:25:11.076Z,74.60
2018-06-01T01:27:39.356Z,74.24
2018-06-01T01:30:07.646Z,74.55
2018-06-01T01:32:35.898Z,74.42
2018-06-01T01:35:04.156Z,74.50
2018-06-01T01:37:33.233Z,74.51
2018-06-01T01:40:01.511Z,74.58
2018-06-01T01:42:30.551Z,74.41
2018-06-01T01:44:58.845Z,74.21
2018-06-01T01:47:27.178Z,74.14
2018-06-01T01:49:55.444Z,73.75
2018-06-01T01:52:23.725Z,74.18
2018-06-01T01:54:52.129Z,73.99
2018-06-01T01:57:20.397Z,73.98
2018-06-01T01:59:48.685Z,73.97
2018-06-01T02:02:16.972Z,73.90
2018-06-01T02:04:45.254Z,73.94
2018-06-01T02:07:13.535Z,74.20
2018-06-01T02:09:41.802Z,74.11
2018-06-01T02:12:10.846Z,74.00
2018-06-01T02:14:39.127Z,73.84
2018-06-01T02:17:07.387Z,73.98
2018-06-01T02:19:36.426Z,73.98
2018-06-01T02:22:04.731Z,74.08
2018-06-01T02:24:32.991Z,74.02
2018-06-01T02:27:01.260Z,74.87
2018-06-01T02:29:29.542Z,74.41
2018-06-01T02:31:57.805Z,74.60
2018-06-01T02:34:26.096Z,74.81
2018-06-01T02:36:54.375Z,75.05
2018-06-01T02:39:22.632Z,74.75
2018-06-01T02:41:51.689Z,75.02
2018-06-01T02:44:19.991Z,75.00
2018-06-01T02:46:48.255Z,75.27
2018-06-01T02:49:16.568Z,75.36
2018-06-01T02:51:44.848Z,75.64
2018-06-01T02:54:13.119Z,75.41
2018-06-01T02:56:41.375Z,75.75
2018-06-01T02:59:10.436Z,75.71
2018-06-01T03:01:38.697Z,75.83
2018-06-01T03:04:06.982Z,76.44
2018-06-01T03:06:52.808Z,76.39
2018-06-01T03:09:21.090Z,76.10
2018-06-01T03:11:49.374Z,76.04
2018-06-01T03:14:17.675Z,75.88
2018-06-01T03:16:45.952Z,75.85
2018-06-01T03:19:14.226Z,76.00
2018-06-01T03:21:43.248Z,76.37
2018-06-01T03:24:11.543Z,76.21
2018-06-01T03:26:39.887Z,76.43
2018-06-01T03:29:08.182Z,76.35
2018-06-01T03:31:36.444Z,76.56
2018-06-01T03:34:04.720Z,76.71
2018-06-01T03:36:33.016Z,76.65
2018-06-01T03:39:01.295Z,76.58
2018-06-01T03:41:29.580Z,76.35
2018-06-01T03:43:57.960Z,76.28
2018-06-01T03:46:26.980Z,76.72
2018-06-01T03:48:55.236Z,77.17
2018-06-01T03:51:24.294Z,77.45
2018-06-01T03:53:52.554Z,77.47
2018-06-01T03:56:20.828Z,77.83
2018-06-01T03:58:49.931Z,78.22
2018-06-01T04:01:18.189Z,78.35
2018-06-01T04:03:46.478Z,78.49
2018-06-01T04:06:14.771Z,78.73
2018-06-01T04:08:43.063Z,78.89
2018-06-01T04:11:11.411Z,78.72
2018-06-01T04:13:40.470Z,78.97
2018-06-01T04:16:08.746Z,78.90
2018-06-01T04:18:37.018Z,78.85
2018-06-01T04:21:05.303Z,78.98
2018-06-01T04:23:33.562Z,79.36
2018-06-01T04:26:02.626Z,79.41
2018-06-01T04:28:32.437Z,79.66
2018-06-01T04:31:00.689Z,80.09
2018-06-01T04:33:29.713Z,80.28
2018-06-01T04:35:58.002Z,80.92
2018-06-01T04:38:26.277Z,81.45
2018-06-01T04:40:55.305Z,81.70
2018-06-01T04:43:23.588Z,81.67
2018-06-01T04:45:51.861Z,81.32
2018-06-01T04:48:20.894Z,81.78
2018-06-01T04:50:49.231Z,81.71
2018-06-01T04:53:18.317Z,81.75
2018-06-01T04:55:46.595Z,81.79
2018-06-01T04:58:14.892Z,82.50
2018-06-01T05:00:43.168Z,82.13
2018-06-01T05:03:11.437Z,83.14
2018-06-01T05:05:40.524Z,83.03
2018-06-01T05:08:08.776Z,83.33
2018-06-01T05:10:37.035Z,84.00
2018-06-01T05:13:05.321Z,85.02
2018-06-01T05:15:33.599Z,86.59
2018-06-01T05:18:02.634Z,86.97
2018-06-01T05:20:30.906Z,87.58
2018-06-01T05:22:59.197Z,88.35
2018-06-01T05:25:28.243Z,89.26
2018-06-01T05:27:56.574Z,89.97
2018-06-01T05:30:24.827Z,90.67
2018-06-01T05:32:53.110Z,91.09
2018-06-01T05:35:21.414Z,91.32
2018-06-01T05:37:49.665Z,91.90
2018-06-01T05:40:18.037Z,91.62
2018-06-01T05:42:47.248Z,91.52
2018-06-01T05:45:16.306Z,91.71
2018-06-01T05:47:44.576Z,92.02
2018-06-01T05:50:12.960Z,91.96
2018-06-01T05:52:41.242Z,91.93
2018-06-01T05:55:09.532Z,91.92
2018-06-01T05:57:37.812Z,91.83
2018-06-01T06:00:06.871Z,91.85
2018-06-01T06:02:35.166Z,91.79
2018-06-01T06:05:03.453Z,91.29
2018-06-01T06:07:31.818Z,91.26
2018-06-01T06:10:00.110Z,91.20
2018-06-01T06:12:28.390Z,90.99
2018-06-01T06:14:56.668Z,90.83
2018-06-01T06:17:24.955Z,90.93
2018-06-01T06:19:54.060Z,90.65
2018-06-01T06:22:23.090Z,90.00
2018-06-01T06:24:51.445Z,89.92
2018-06-01T06:27:19.753Z,90.27
2018-06-01T06:29:48.819Z,90.28
2018-06-01T06:32:17.892Z,89.86
2018-06-01T06:34:46.276Z,89.84
2018-06-01T06:37:14.566Z,90.32
2018-06-01T06:39:42.846Z,90.28
2018-06-01T06:42:11.136Z,90.20
2018-06-01T06:44:40.171Z,90.21
2018-06-01T06:47:08.437Z,90.43
2018-06-01T06:49:37.554Z,90.30
2018-06-01T06:52:06.611Z,90.58
2018-06-01T06:54:34.900Z,90.67
2018-06-01T06:57:03.194Z,90.68
2018-06-01T06:59:31.471Z,90.42
2018-06-01T07:01:59.757Z,90.70
2018-06-01T07:04:28.039Z,90.36
2018-06-01T07:06:56.310Z,90.70
2018-06-01T07:09:24.580Z,90.75
2018-06-01T07:11:52.847Z,90.53
2018-06-01T07:14:21.147Z,90.05
2018-06-01T07:16:49.464Z,89.98
2018-06-01T07:19:17.771Z,89.76
2018-06-01T07:21:46.800Z,89.11
2018-06-01T07:24:15.047Z,89.57
2018-06-01T07:26:43.339Z,89.57
2018-06-01T07:29:11.641Z,89.84
2018-06-01T07:31:40.005Z,89.88
2018-06-01T07:34:09.061Z,89.81
2018-06-01T07:36:37.346Z,90.38
2018-06-01T07:39:06.436Z,90.14
2018-06-01T07:41:34.728Z,90.58
2018-06-01T07:44:03.014Z,90.03
2018-06-01T07:46:31.267Z,89.97
2018-06-01T07:48:59.569Z,89.75
2018-06-01T07:51:27.850Z,90.23
2018-06-01T07:53:56.112Z,90.37
2018-06-01T07:56:24.401Z,90.49
2018-06-01T07:58:52.672Z,90.55
2018-06-01T08:01:20.983Z,90.76
2018-06-01T08:03:49.291Z,90.54
2018-06-01T08:06:17.583Z,90.20
2018-06-01T08:08:45.855Z,89.52
2018-06-01T08:11:14.162Z,89.41
2018-06-01T08:13:42.496Z,89.70
2018-06-01T08:16:11.624Z,90.11
2018-06-01T08:18:39.913Z,89.65
2018-06-01T08:21:08.190Z,89.73
2018-06-01T08:23:36.452Z,88.81
2018-06-01T08:26:04.746Z,88.98
2018-06-01T08:28:34.773Z,88.92
2018-06-01T08:31:03.824Z,88.87
2018-06-01T08:33:32.118Z,89.38
2018-06-01T08:36:00.386Z,89.19
2018-06-01T08:38:28.670Z,89.58
2018-06-01T08:40:57.719Z,89.53
2018-06-01T08:43:26.008Z,89.97
2018-06-01T08:45:54.268Z,90.46
2018-06-01T08:48:23.375Z,91.38
2018-06-01T08:50:52.417Z,91.58
2018-06-01T08:53:20.758Z,91.95
2018-06-01T08:55:49.838Z,92.24
2018-06-01T08:58:18.103Z,92.11
2018-06-01T09:00:46.388Z,92.34
2018-06-01T09:03:14.689Z,92.67
2018-06-01T09:05:42.961Z,92.97
2018-06-01T09:08:11.251Z,93.19
2018-06-01T09:10:39.542Z,93.35
2018-06-01T09:13:07.805Z,93.33
2018-06-01T09:15:36.832Z,93.27
2018-06-01T09:18:05.128Z,93.33
2018-06-01T09:20:33.495Z,93.35
2018-06-01T09:23:02.538Z,93.44
2018-06-01T09:25:30.817Z,93.46
2018-06-01T09:27:59.125Z,93.57
2018-06-01T09:30:28.374Z,93.54
2018-06-01T09:32:56.655Z,93.43
2018-06-01T09:35:25.152Z,93.44
2018-06-01T09:37:53.430Z,93.06
2018-06-01T09:40:21.719Z,92.80
2018-06-01T09:42:50.014Z,92.68
2018-06-01T09:45:18.461Z,92.82
2018-06-01T09:47:46.771Z,92.57
2018-06-01T09:50:15.047Z,92.43
2018-06-01T09:52:43.316Z,92.59
2018-06-01T09:55:12.379Z,92.57
2018-06-01T09:57:40.639Z,92.17
2018-06-01T10:00:08.911Z,91.87
2018-06-01T10:02:37.249Z,91.71
2018-06-01T10:05:05.511Z,91.26
2018-06-01T10:07:33.771Z,91.44
2018-06-01T10:10:08.323Z,91.52
2018-06-01T10:12:36.610Z,91.41
2018-06-01T10:15:04.889Z,91.21
2018-06-01T10:17:33.942Z,91.09
2018-06-01T10:20:02.200Z,90.42
2018-06-01T10:22:31.374Z,90.25
2018-06-01T10:24:59.679Z,90.19
2018-06-01T10:27:28.723Z,90.43
2018-06-01T10:29:57.001Z,90.62
2018-06-01T10:32:25.307Z,90.06
2018-06-01T10:34:53.563Z,89.53
2018-06-01T10:37:22.612Z,89.69
2018-06-01T10:39:50.941Z,89.20
2018-06-01T10:42:19.329Z,89.83
2018-06-01T10:44:47.645Z,90.43
2018-06-01T10:47:16.829Z,89.66
2018-06-01T10:49:45.097Z,90.45
2018-06-01T10:52:13.373Z,89.91
2018-06-01T10:54:41.672Z,89.25
2018-06-01T10:57:09.946Z,89.90
2018-06-01T10:59:38.223Z,89.24
2018-06-01T11:02:07.251Z,89.30
2018-06-01T11:04:35.777Z,89.37
2018-06-01T11:07:04.069Z,89.83
2018-06-01T11:09:34.427Z,89.10
2018-06-01T11:12:04.209Z,88.26
2018-06-01T11:14:32.633Z,87.31
2018-06-01T11:17:00.882Z,88.08
2018-06-01T11:19:29.268Z,86.34
2018-06-01T11:21:57.519Z,87.16
2018-06-01T11:24:25.827Z,85.80
2018-06-01T11:26:54.860Z,85.97
2018-06-01T11:31:55.968Z,85.59
2018-06-01T11:34:24.316Z,86.13
2018-06-01T11:36:53.367Z,85.79
2018-06-01T11:39:21.664Z,85.92
2018-06-01T11:41:49.971Z,86.14
2018-06-01T11:44:18.251Z,85.83
2018-06-01T11:46:46.595Z,86.14
2018-06-01T11:49:14.880Z,85.67
2018-06-01T11:51:43.935Z,84.20
2018-06-01T11:54:12.249Z,84.21
2018-06-01T11:56:40.539Z,84.78
2018-06-01T11:59:09.013Z,84.17
2018-06-01T12:01:37.291Z,84.00
2018-06-01T12:04:05.552Z,83.17
2018-06-01T12:06:33.851Z,84.34
2018-06-01T12:09:02.156Z,83.70
2018-06-01T12:11:30.410Z,84.49
2018-06-01T12:13:59.493Z,83.38
2018-06-01T12:16:27.763Z,82.61
2018-06-01T12:18:56.024Z,82.10
2018-06-01T12:21:24.303Z,81.67
2018-06-01T12:23:52.613Z,81.76
2018-06-01T12:26:20.992Z,81.32
2018-06-01T12:28:49.297Z,79.95
2018-06-01T12:31:17.612Z,80.29
2018-06-01T12:33:45.888Z,79.07
2018-06-01T12:36:14.155Z,81.24
2018-06-01T12:38:42.458Z,82.58
2018-06-01T12:41:10.724Z,81.70
2018-06-01T12:43:39.770Z,79.89
2018-06-01T12:46:08.050Z,80.87
2018-06-01T12:48:36.319Z,81.05
2018-06-01T12:51:04.583Z,81.31
2018-06-01T12:53:33.622Z,80.79
2018-06-01T12:56:01.907Z,81.25
2018-06-01T12:58:30.191Z,81.72
2018-06-01T13:00:58.484Z,82.50
2018-06-01T13:03:26.762Z,81.43
2018-06-01T13:05:55.059Z,80.84
2018-06-01T13:08:24.117Z,80.99
2018-06-01T13:10:52.371Z,81.47
2018-06-01T13:13:20.680Z,82.15
2018-06-01T13:15:48.985Z,82.79
2018-06-01T13:18:17.438Z,82.98
2018-06-01T13:20:45.763Z,83.20
2018-06-01T13:23:14.026Z,82.55
2018-06-01T13:25:42.317Z,82.64
2018-06-01T13:28:10.613Z,82.90
2018-06-01T13:30:38.885Z,81.57
2018-06-01T13:33:07.911Z,81.16
2018-06-01T13:35:36.168Z,81.51
2018-06-01T13:38:05.212Z,82.78
2018-06-01T13:40:33.883Z,82.63
2018-06-01T13:43:02.919Z,83.05
2018-06-01T13:45:31.194Z,83.81
2018-06-01T13:47:59.488Z,82.95
2018-06-01T13:50:27.752Z,82.83
2018-06-01T13:52:56.795Z,81.08
2018-06-01T13:55:25.097Z,81.53
2018-06-01T13:57:53.393Z,80.16
2018-06-01T14:00:21.863Z,79.59
2018-06-01T14:02:50.924Z,78.21
2018-06-01T14:05:19.219Z,77.88
2018-06-01T14:07:47.546Z,78.24
2018-06-01T14:10:15.833Z,79.34
2018-06-01T14:12:44.874Z,79.04
2018-06-01T14:15:13.164Z,79.74
2018-06-01T14:17:41.424Z,80.18
2018-06-01T14:20:10.443Z,80.45
2018-06-01T14:22:38.755Z,80.81
2018-06-01T14:25:07.024Z,80.52
2018-06-01T14:27:35.284Z,80.33
2018-06-01T14:30:04.355Z,81.26
2018-06-01T14:32:32.627Z,81.61
2018-06-01T14:35:00.977Z,81.33
2018-06-01T14:37:29.298Z,81.03
2018-06-01T14:39:57.624Z,83.17
2018-06-01T14:42:25.898Z,83.36
2018-06-01T14:44:54.196Z,82.21
2018-06-01T14:47:22.549Z,82.85
2018-06-01T14:49:51.597Z,83.54
2018-06-01T14:52:19.957Z,84.32
2018-06-01T14:54:48.241Z,83.32
2018-06-01T14:57:16.513Z,83.11
2018-06-01T14:59:45.566Z,83.97
2018-06-01T15:02:13.839Z,84.42
2018-06-01T15:04:42.102Z,84.40
2018-06-01T15:07:11.135Z,85.64
2018-06-01T15:09:39.416Z,85.60
2018-06-01T15:12:07.732Z,86.09
2018-06-01T15:14:36.008Z,86.33
2018-06-01T15:17:04.376Z,86.59
2018-06-01T15:19:32.662Z,87.20
2018-06-01T15:22:01.729Z,87.82
2018-06-01T15:24:29.993Z,87.62
2018-06-01T15:26:58.287Z,87.44
2018-06-01T15:29:26.580Z,88.27
2018-06-01T15:31:54.853Z,88.78
2018-06-01T15:34:23.240Z,88.30
2018-06-01T15:36:51.513Z,88.69
2018-06-01T15:39:20.586Z,88.41
2018-06-01T15:41:48.851Z,87.84
2018-06-01T15:44:17.135Z,88.12
2018-06-01T15:46:45.409Z,88.04
2018-06-01T15:49:13.874Z,88.72
2018-06-01T15:51:42.132Z,87.73
2018-06-01T15:54:10.397Z,87.27
2018-06-01T15:56:38.663Z,87.67
2018-06-01T15:59:06.958Z,86.91
2018-06-01T16:01:35.219Z,85.24
2018-06-01T16:04:04.266Z,86.01
2018-06-01T16:06:32.532Z,86.34
2018-06-01T16:09:01.582Z,85.28
2018-06-01T16:11:29.859Z,85.89
2018-06-01T16:13:58.137Z,85.99
2018-06-01T16:16:26.417Z,85.95
2018-06-01T16:18:56.516Z,84.52
2018-06-01T16:21:24.807Z,85.92
2018-06-01T16:23:53.079Z,85.82
2018-06-01T16:26:23.043Z,85.02
2018-06-01T16:28:51.696Z,85.78
2018-06-01T16:31:19.994Z,85.55
2018-06-01T16:33:48.266Z,85.44
2018-06-01T16:36:16.591Z,84.82
2018-06-01T16:38:44.925Z,85.42
2018-06-01T16:41:13.970Z,85.41
2018-06-01T16:43:42.240Z,85.60
2018-06-01T16:46:10.499Z,85.71
2018-06-01T16:48:40.210Z,85.89
2018-06-01T16:51:08.483Z,85.21
2018-06-01T16:53:36.731Z,85.53
2018-06-01T16:56:05.034Z,84.98
2018-06-01T16:58:33.337Z,85.29
2018-06-01T17:01:01.592Z,85.23
2018-06-01T17:03:29.855Z,85.17
2018-06-01T17:05:58.128Z,85.96
2018-06-01T17:08:26.410Z,85.45
2018-06-01T17:10:54.677Z,85.41
2018-06-01T17:13:23.050Z,85.48
2018-06-01T17:15:52.076Z,85.51
2018-06-01T17:18:20.389Z,85.62
2018-06-01T17:20:48.674Z,85.64
2018-06-01T17:23:17.260Z,85.05
2018-06-01T17:25:45.518Z,85.83
2018-06-01T17:28:13.824Z,85.02
2018-06-01T17:30:42.071Z,85.02
2018-06-01T17:33:10.366Z,85.25
2018-06-01T17:35:38.789Z,85.37
2018-06-01T17:38:07.831Z,85.43
2018-06-01T17:40:36.096Z,85.75
2018-06-01T17:43:04.386Z,86.11
2018-06-01T17:45:32.655Z,85.49
2018-06-01T17:48:01.779Z,84.88
2018-06-01T17:50:30.073Z,84.29
2018-06-01T17:52:58.348Z,84.68
2018-06-01T17:55:27.389Z,84.17
2018-06-01T17:57:55.701Z,84.53
2018-06-01T18:00:23.948Z,85.09
2018-06-01T18:02:52.212Z,85.09
2018-06-01T18:05:21.272Z,84.86
2018-06-01T18:07:49.541Z,85.90
2018-06-01T18:10:17.858Z,85.38
2018-06-01T18:12:46.187Z,84.88
2018-06-01T18:15:14.448Z,85.39
2018-06-01T18:17:42.715Z,85.54
2018-06-01T18:20:11.013Z,85.12
2018-06-01T18:22:39.325Z,85.54
2018-06-01T18:25:07.594Z,86.39
2018-06-01T18:27:36.758Z,85.36
2018-06-01T18:30:05.775Z,84.72
2018-06-01T18:32:34.073Z,85.86
2018-06-01T18:35:02.412Z,85.55
2018-06-01T18:37:30.689Z,85.46
2018-06-01T18:39:58.990Z,85.25
2018-06-01T18:42:27.314Z,85.54
2018-06-01T18:44:56.371Z,85.71
2018-06-01T18:47:24.663Z,86.12
2018-06-01T18:49:53.254Z,85.83
2018-06-01T18:52:21.771Z,86.32
2018-06-01T18:54:50.068Z,85.90
2018-06-01T18:57:18.394Z,85.38
2018-06-01T18:59:47.465Z,84.02
2018-06-01T19:02:15.732Z,84.12
2018-06-01T19:04:44.099Z,84.08
2018-06-01T19:07:12.362Z,83.08
2018-06-01T19:09:40.626Z,83.73
2018-06-01T19:12:08.897Z,83.66
2018-06-01T19:14:37.205Z,83.80
2018-06-01T19:17:05.524Z,83.80
2018-06-01T19:19:33.804Z,83.75
2018-06-01T19:22:02.074Z,83.78
2018-06-01T19:24:30.354Z,83.85
2018-06-01T19:26:58.657Z,84.16
2018-06-01T19:29:26.917Z,84.31
2018-06-01T19:31:55.242Z,84.71
2018-06-01T19:34:23.524Z,84.46
2018-06-01T19:36:51.799Z,84.03
2018-06-01T19:39:20.089Z,84.48
2018-06-01T19:41:48.428Z,84.24
2018-06-01T19:44:16.687Z,84.42
2018-06-01T19:46:45.097Z,84.75
2018-06-01T19:49:13.360Z,84.50
2018-06-01T19:51:41.645Z,84.08
2018-06-01T19:54:09.920Z,84.04
2018-06-01T19:56:38.216Z,84.42
2018-06-01T19:59:06.496Z,84.39
2018-06-01T20:01:34.789Z,84.95
2018-06-01T20:04:03.074Z,85.47
2018-06-01T20:06:31.350Z,85.34
2018-06-01T20:09:00.389Z,86.05
2018-06-01T20:11:28.672Z,85.93
2018-06-01T20:13:57.053Z,85.08
2018-06-01T20:16:25.405Z,83.67
2018-06-01T20:18:53.704Z,84.16
2018-06-01T20:21:22.007Z,84.21
2018-06-01T20:23:50.309Z,83.91
2018-06-01T20:26:19.409Z,84.50
2018-06-01T20:28:47.753Z,84.81
2018-06-01T20:31:16.816Z,84.76
2018-06-01T20:33:45.130Z,85.40
2018-06-01T20:36:14.223Z,85.92
2018-06-01T20:38:42.479Z,85.11
2018-06-01T20:41:11.029Z,85.23
2018-06-01T20:43:39.322Z,85.16
2018-06-01T20:46:07.595Z,84.48
2018-06-01T20:48:35.882Z,85.05
2018-06-01T20:51:04.137Z,85.38
2018-06-01T20:53:33.204Z,85.18
2018-06-01T20:56:01.489Z,85.40
2018-06-01T20:58:29.786Z,84.84
2018-06-01T21:00:58.080Z,85.10
2018-06-01T21:03:26.355Z,85.38
2018-06-01T21:05:54.642Z,85.43
2018-06-01T21:08:22.977Z,85.80
2018-06-01T21:10:51.323Z,85.59
2018-06-01T21:13:19.620Z,85.80
2018-06-01T21:15:47.933Z,85.88
2018-06-01T21:18:16.212Z,85.57
2018-06-01T21:20:44.536Z,85.78
2018-06-01T21:23:12.784Z,86.10
2018-06-01T21:25:41.156Z,85.66
2018-06-01T21:28:09.433Z,86.25
2018-06-01T21:30:38.456Z,85.31
2018-06-01T21:33:06.727Z,85.52
2018-06-01T21:35:35.042Z,86.06
2018-06-01T21:38:03.311Z,86.10
2018-06-01T21:40:32.343Z,84.89
2018-06-01T21:43:00.721Z,85.06
2018-06-01T21:45:29.768Z,85.08
2018-06-01T21:47:58.096Z,85.25
2018-06-01T21:50:26.386Z,85.44
2018-06-01T21:52:54.688Z,85.69
2018-06-01T21:55:23.020Z,85.47
2018-06-01T21:57:51.374Z,85.17
2018-06-01T22:00:20.473Z,85.13
2018-06-01T22:02:49.569Z,84.97
2018-06-01T22:05:17.916Z,84.68
2018-06-01T22:07:46.292Z,84.59
2018-06-01T22:10:14.663Z,83.73
2018-06-01T22:12:43.707Z,84.67
2018-06-01T22:15:11.989Z,84.73
2018-06-01T22:17:40.268Z,84.62
2018-06-01T22:20:09.445Z,85.16
2018-06-01T22:22:37.769Z,84.91
2018-06-01T22:25:06.036Z,84.58
2018-06-01T22:27:35.174Z,84.38
2018-06-01T22:30:03.438Z,84.59
2018-06-01T22:32:32.503Z,84.46
2018-06-01T22:35:00.786Z,84.49
2018-06-01T22:37:29.062Z,84.35
2018-06-01T22:39:57.348Z,84.03
2018-06-01T22:42:25.654Z,84.01
2018-06-01T22:44:53.890Z,83.75
2018-06-01T22:47:22.184Z,83.53
2018-06-01T22:49:51.245Z,84.14
2018-06-01T22:52:19.505Z,84.25
2018-06-01T22:54:48.527Z,83.53
2018-06-01T22:57:16.794Z,83.80
2018-06-01T22:59:45.102Z,83.79
2018-06-01T23:02:13.410Z,84.14
2018-06-01T23:04:41.660Z,84.10
2018-06-01T23:07:10.714Z,84.22
2018-06-01T23:09:39.047Z,83.77
2018-06-01T23:12:07.366Z,84.14
2018-06-01T23:14:35.691Z,83.86
2018-06-01T23:17:04.719Z,84.47
2018-06-01T23:19:32.989Z,84.61
2018-06-01T23:22:01.263Z,84.49
2018-06-01T23:24:29.554Z,84.31
2018-06-01T23:26:57.826Z,84.10
2018-06-01T23:29:26.087Z,84.60
2018-06-01T23:31:55.187Z,84.86
2018-06-01T23:34:23.481Z,84.84
2018-06-01T23:36:51.759Z,85.59
2018-06-01T23:39:20.095Z,84.88
2018-06-01T23:41:48.383Z,84.72
2018-06-01T23:44:16.724Z,84.62
2018-06-01T23:46:45.048Z,85.11
2018-06-01T23:49:14.091Z,85.19
2018-06-01T23:51:42.423Z,85.30
2018-06-01T23:54:10.697Z,85.52
2018-06-01T23:56:38.985Z,85.37
2018-06-01T23:59:07.244Z,85.66
